ADDS METAR Data INFO
IDs: Format: Raw Decoded Include TAF

Data at: 0840 UTC 21 Oct 2017

K1K1 210835Z AUTO 18017G25KT 10SM OVC018 19/16 A2977 RMK AO2 T01920162
K1K1 210815Z AUTO 18017G28KT 10SM OVC020 19/16 A2977 RMK AO2 T01900161
K1K1 210755Z AUTO 19019G30KT 10SM BKN018 OVC024 19/16 A2977 RMK AO2 T01900160
K1K1 210735Z AUTO 17015G26KT 10SM BKN020 OVC024 19/16 A2978 RMK AO2 T01900160
K1K1 210715Z AUTO 17012G25KT 10SM OVC020 19/16 A2977 RMK AO2 T01900160
K1K1 210655Z AUTO 17016G25KT 10SM BKN022 BKN026 BKN049 19/16 A2978 RMK AO2 T01900160
K1K1 210635Z AUTO 17014G23KT 10SM BKN022 BKN026 BKN049 19/16 A2978 RMK AO2 T01900158
K1K1 210615Z AUTO 17015G23KT 10SM BKN022 BKN028 OVC049 19/16 A2978 RMK AO2 T01910158
K1K1 210555Z AUTO 16014G24KT 10SM BKN024 OVC048 19/16 A2979 RMK AO2 T01940158 10223 20194 402490133
K1K1 210535Z AUTO 17016G25KT 10SM OVC024 20/16 A2979 RMK AO2 T01970158
K1K1 210515Z AUTO 17016G28KT 10SM OVC026 20/16 A2980 RMK AO2 T02000160
K1K1 210455Z AUTO 17012G22KT 10SM SCT028 BKN032 OVC044 20/16 A2981 RMK AO2 T02000158
K1K1 210435Z AUTO 17013G25KT 10SM SCT034 OVC044 20/16 A2981 RMK AO2 T01980155
K1K1 210415Z AUTO 17014G23KT 10SM OVC032 20/15 A2981 RMK AO2 T02000152
K1K1 210355Z AUTO 17014G22KT 10SM BKN032 BKN040 20/15 A2981 RMK AO2 T02000151
K1K1 210335Z AUTO 17012G23KT 10SM SCT040 20/15 A2981 RMK AO2 T02020152
K1K1 210315Z AUTO 17013G26KT 10SM BKN040 21/15 A2980 RMK AO2 T02050152
K1K1 210255Z AUTO 17013G27KT 10SM CLR 21/15 A2980 RMK AO2 T02050151
K1K1 210235Z AUTO 17014G23KT 10SM CLR 21/15 A2979 RMK AO2 T02100151
K1K1 210215Z AUTO 17014G29KT 10SM SCT045 21/15 A2979 RMK AO2 T02110148
K1K1 210155Z AUTO 17012G21KT 10SM SCT043 BKN050 22/15 A2979 RMK AO2 T02150146
K1K1 210135Z AUTO 17016G29KT 10SM SCT042 SCT050 22/15 A2979 RMK AO2 T02150145
K1K1 210115Z AUTO 17014G21KT 10SM SCT043 BKN050 22/14 A2979 RMK AO2 T02160142
K1K1 210055Z AUTO 17014G21KT 10SM BKN046 22/13 A2979 RMK AO2 T02170134
K1K1 210035Z AUTO 17013G24KT 10SM SCT046 SCT050 22/13 A2979 RMK AO2 T02170128
K1K1 210015Z AUTO 17014G23KT 10SM SCT060 22/13 A2979 RMK AO2 T02200125
K1K1 202355Z AUTO 17013G26KT 130V190 10SM SCT060 22/13 A2978 RMK AO2 T02240125 10249 20223
K1K1 202335Z AUTO 17012G26KT 10SM SCT060 23/13 A2979 RMK AO2 T02250130
K1K1 202315Z AUTO 18021G30KT 10SM CLR 23/13 A2980 RMK AO2 T02270132
K1K1 202255Z AUTO 18015G25KT 10SM SCT050 23/14 A2979 RMK AO2 T02280136
K1K1 202235Z AUTO 18016G26KT 10SM BKN048 23/14 A2980 RMK AO2 T02300137
K1K1 202215Z AUTO 18017G30KT 10SM BKN048 BKN055 23/14 A2981 RMK AO2 T02300137
K1K1 202155Z AUTO 17013G31KT 10SM SCT046 24/14 A2981 RMK AO2 T02350136
K1K1 202135Z AUTO 18020G32KT 10SM CLR 24/14 A2982 RMK AO2 T02350136
K1K1 202115Z AUTO 18025G30KT 10SM CLR 24/14 A2983 RMK AO2 T02410136
K1K1 202055Z AUTO 18022G33KT 10SM CLR 24/14 A2983 RMK AO2 T02410139
K1K1 202035Z AUTO 18016G30KT 10SM CLR 24/14 A2983 RMK AO2 T02410140
K1K1 202015Z AUTO 17021G31KT 10SM CLR 24/14 A2984 RMK AO2 T02430141
K1K1 201955Z AUTO 18018G32KT 10SM SCT041 25/14 A2984 RMK AO2 T02450143
K1K1 201935Z AUTO 17019G34KT 10SM CLR 24/14 A2985 RMK AO2 T02440142
K1K1 201915Z AUTO 17021G31KT 10SM SCT037 25/15 A2987 RMK AO2 T02460145
K1K1 201855Z AUTO 17020G29KT 10SM SCT037 24/15 A2988 RMK AO2 T02400146
K1K1 201835Z AUTO 17019G29KT 10SM SCT037 24/15 A2989 RMK AO2 T02360148
K1K1 201815Z AUTO 17017G27KT 10SM SCT033 SCT041 24/15 A2990 RMK AO2 T02380148
K1K1 201755Z AUTO 17019G27KT 10SM SCT033 SCT041 24/15 A2992 RMK AO2 T02360150 10236 20133
K1K1 201735Z AUTO 17016G27KT 10SM SCT033 23/15 A2993 RMK AO2 T02320151
K1K1 201715Z AUTO 18017G25KT 10SM SCT030 23/15 A2994 RMK AO2 T02280149
K1K1 201655Z AUTO 18017G25KT 10SM SCT027 SCT033 22/15 A2995 RMK AO2 T02190148
K1K1 201635Z AUTO 18018G24KT 10SM CLR 21/15 A2996 RMK AO2 T02120145
K1K1 201615Z AUTO 19017G22KT 10SM CLR 20/14 A2997 RMK AO2 T01980143
K1K1 201555Z AUTO 18014G28KT 10SM CLR 19/14 A2998 RMK AO2 T01900138
K1K1 201535Z AUTO 18018G22KT 10SM CLR 18/14 A2999 RMK AO2 T01840135
K1K1 201515Z AUTO 18016G21KT 10SM CLR 18/14 A3000 RMK AO2 T01800135
K1K1 201455Z AUTO 18012G19KT 10SM CLR 16/13 A3000 RMK AO2 T01610126
K1K1 201435Z AUTO 17012KT 10SM CLR 15/12 A3000 RMK AO2 T01470120
K1K1 201415Z AUTO 18011G18KT 10SM CLR 15/12 A3000 RMK AO2 T01450118
K1K1 201355Z AUTO 17013G18KT 10SM CLR 15/12 A3001 RMK AO2 T01450116
K1K1 201335Z AUTO 17012G18KT 10SM CLR 14/12 A3001 RMK AO2 T01420115
K1K1 201315Z AUTO 17010G19KT 10SM SCT050 14/11 A3001 RMK AO2 T01380113
K1K1 201255Z AUTO 17010G17KT 10SM SCT050 14/11 A3002 RMK AO2 T01360112
K1K1 201235Z AUTO 17009G16KT 10SM CLR 13/11 A3002 RMK AO2 T01330111
K1K1 201215Z AUTO 18011G16KT 10SM CLR 13/11 A3003 RMK AO2 T01330110
K1K1 201155Z AUTO 17009G15KT 10SM CLR 13/11 A3003 RMK AO2 T01330111 10149 20133
K1K1 201135Z AUTO 17010G15KT 10SM CLR 13/11 A3003 RMK AO2 T01330111
K1K1 201115Z AUTO 18011G16KT 10SM CLR 14/11 A3003 RMK AO2 T01350111
K1K1 201055Z AUTO 17010G16KT 10SM CLR 14/11 A3003 RMK AO2 T01350111
K1K1 201035Z AUTO 18012G20KT 10SM CLR 14/11 A3003 RMK AO2 T01350112
K1K1 201015Z AUTO 17009G16KT 10SM CLR 14/11 A3003 RMK AO2 T01350113
K1K1 200955Z AUTO 17009G14KT 10SM CLR 14/11 A3004 RMK AO2 T01350113
K1K1 200935Z AUTO 17009G14KT 10SM CLR 13/11 A3004 RMK AO2 T01330113
K1K1 200915Z AUTO 17008KT 10SM CLR 14/12 A3004 RMK AO2 T01350115
K1K1 200855Z AUTO 17008KT 10SM CLR 14/12 A3004 RMK AO2 T01350115
K1K1 200835Z AUTO 16008G15KT 10SM CLR 14/12 A3004 RMK AO2 T01350115
K1K1 200815Z AUTO 17008KT 10SM CLR 14/12 A3005 RMK AO2 T01360116
K1K1 200755Z AUTO 17009G15KT 10SM CLR 14/12 A3005 RMK AO2 T01380117
K1K1 200735Z AUTO 16007G15KT 10SM CLR 14/12 A3005 RMK AO2 T01410118
K1K1 200715Z AUTO 16009G16KT 10SM CLR 14/12 A3006 RMK AO2 T01440119
K1K1 200655Z AUTO 16008G15KT 10SM CLR 15/12 A3006 RMK AO2 T01460119
K1K1 200635Z AUTO 17007G17KT 10SM CLR 15/12 A3007 RMK AO2 T01480120
K1K1 200615Z AUTO 17008G16KT 10SM CLR 15/12 A3007 RMK AO2 T01490119
K1K1 200555Z AUTO 17008G17KT 10SM CLR 15/12 A3007 RMK AO2 T01470117 10210 20146 402620093
K1K1 200535Z AUTO 16008KT 10SM CLR 15/12 A3007 RMK AO2 T01460116
K1K1 200515Z AUTO 17007KT 10SM CLR 15/12 A3008 RMK AO2 T01500115
K1K1 200455Z AUTO 17007G14KT 10SM CLR 15/12 A3008 RMK AO2 T01500115
K1K1 200435Z AUTO 17006G16KT 10SM CLR 15/11 A3009 RMK AO2 T01520112
K1K1 200415Z AUTO 17007G16KT 10SM CLR 15/11 A3008 RMK AO2 T01530109
K1K1 200355Z AUTO 18006KT 10SM CLR 16/11 A3008 RMK AO2 T01550106
K1K1 200335Z AUTO 17006KT 10SM CLR 16/11 A3008 RMK AO2 T01560106
K1K1 200315Z AUTO 17006KT 10SM CLR 16/11 A3007 RMK AO2 T01580106
K1K1 200255Z AUTO 17007KT 10SM CLR 16/11 A3007 RMK AO2 T01610105
K1K1 200235Z AUTO 17008G16KT 10SM CLR 17/10 A3006 RMK AO2 T01650102
K1K1 200215Z AUTO 16005KT 10SM CLR 17/10 A3005 RMK AO2 T01670096
K1K1 200155Z AUTO 16006KT 10SM CLR 17/09 A3005 RMK AO2 T01720092
K1K1 200135Z AUTO 16005KT 10SM CLR 17/09 A3005 RMK AO2 T01720088
K1K1 200115Z AUTO 16006KT 10SM CLR 18/09 A3005 RMK AO2 T01760087
K1K1 200055Z AUTO 16006KT 10SM CLR 18/09 A3005 RMK AO2 T01830085
K1K1 200035Z AUTO 17007KT 10SM CLR 19/09 A3005 RMK AO2 T01910086
K1K1 200015Z AUTO 17008KT 10SM CLR 20/09 A3005 RMK AO2 T02000088
K1K1 192355Z AUTO 17010G15KT 10SM CLR 21/09 A3005 RMK AO2 T02110091 10262 20211
K1K1 192335Z AUTO 17008KT 10SM CLR 22/09 A3004 RMK AO2 T02160085
K1K1 192315Z AUTO 17009KT 10SM CLR 23/08 A3004 RMK AO2 T02260082
K1K1 192255Z AUTO 17010G20KT 10SM CLR 24/07 A3004 RMK AO2 T02370073
K1K1 192235Z AUTO 18010G16KT 10SM CLR 25/07 A3004 RMK AO2 T02460071
K1K1 192215Z AUTO 17010G14KT 10SM CLR 25/09 A3004 RMK AO2 T02510091
K1K1 192155Z AUTO 18011G21KT 10SM CLR 25/09 A3004 RMK AO2 T02520085
K1K1 192135Z AUTO 18009G22KT 10SM CLR 26/07 A3005 RMK AO2 T02580068
K1K1 192115Z AUTO 19013G22KT 10SM CLR 26/06 A3005 RMK AO2 T02590063
K1K1 192055Z AUTO 18010G16KT 10SM CLR 26/08 A3005 RMK AO2 T02590083